createdAt,value
2023-04-15T00:00:59.975Z,11.46
2023-04-15T00:03:29.014Z,11.46
2023-04-15T00:05:58.809Z,11.46
2023-04-15T00:08:27.502Z,11.45
2023-04-15T00:10:55.982Z,11.44
2023-04-15T00:13:24.260Z,11.43
2023-04-15T00:15:52.839Z,11.45
2023-04-15T00:18:22.352Z,11.47
2023-04-15T00:20:50.522Z,11.49
2023-04-15T00:23:19.311Z,11.50
2023-04-15T00:25:47.690Z,11.51
2023-04-15T00:28:15.858Z,11.49
2023-04-15T00:30:45.192Z,11.46
2023-04-15T00:33:14.975Z,11.39
2023-04-15T00:35:43.458Z,11.30
2023-04-15T00:38:11.622Z,11.23
2023-04-15T00:40:39.888Z,11.16
2023-04-15T00:43:08.085Z,11.06
2023-04-15T00:45:36.777Z,10.97
2023-04-15T00:48:06.034Z,10.89
2023-04-15T00:50:34.451Z,10.81
2023-04-15T00:53:02.844Z,10.75
2023-04-15T00:55:31.823Z,10.69
2023-04-15T00:58:00.337Z,10.64
2023-04-15T01:00:29.315Z,10.61
2023-04-15T01:02:57.995Z,10.54
2023-04-15T01:05:27.183Z,10.48
2023-04-15T01:07:56.378Z,10.41
2023-04-15T01:10:24.423Z,10.36
2023-04-15T01:12:52.729Z,10.30
2023-04-15T01:15:21.554Z,10.25
2023-04-15T01:17:50.496Z,10.21
2023-04-15T01:20:19.096Z,10.18
2023-04-15T01:22:49.325Z,10.15
2023-04-15T01:25:31.453Z,10.12
2023-04-15T01:28:00.823Z,10.07
2023-04-15T01:30:29.403Z,10.02
2023-04-15T01:32:57.847Z,9.97
2023-04-15T01:35:27.307Z,9.92
2023-04-15T01:38:02.552Z,9.88
2023-04-15T01:40:31.134Z,9.83
2023-04-15T01:43:00.518Z,9.78
2023-04-15T01:45:28.917Z,9.73
2023-04-15T01:47:57.581Z,9.69
2023-04-15T01:50:27.405Z,9.67
2023-04-15T01:52:58.028Z,9.66
2023-04-15T01:55:26.317Z,9.63
2023-04-15T01:57:54.589Z,9.58
2023-04-15T02:00:23.300Z,9.55
2023-04-15T02:02:54.198Z,9.52
2023-04-15T02:05:22.899Z,9.49
2023-04-15T02:07:51.480Z,9.47
2023-04-15T02:10:19.833Z,9.44
2023-04-15T02:12:48.139Z,9.41
2023-04-15T02:15:16.616Z,9.39
2023-04-15T02:17:46.235Z,9.35
2023-04-15T02:20:19.431Z,9.32
2023-04-15T02:22:48.626Z,9.31
2023-04-15T02:25:20.624Z,9.32
2023-04-15T02:27:49.173Z,9.33
2023-04-15T02:30:19.083Z,9.35
2023-04-15T02:32:47.648Z,9.37
2023-04-15T02:35:16.157Z,9.37
2023-04-15T02:37:46.144Z,9.36
2023-04-15T02:40:15.054Z,9.38
2023-04-15T02:42:44.466Z,9.40
2023-04-15T02:45:14.886Z,9.41
2023-04-15T02:47:44.584Z,9.44
2023-04-15T02:50:14.308Z,9.45
2023-04-15T02:52:44.804Z,9.46
2023-04-15T02:55:13.540Z,9.48
2023-04-15T02:57:42.215Z,9.48
2023-04-15T03:00:12.219Z,9.47
2023-04-15T03:02:47.164Z,9.45
2023-04-15T03:05:15.806Z,9.44
2023-04-15T03:07:49.237Z,9.39
2023-04-15T03:10:18.080Z,9.35
2023-04-15T03:12:48.155Z,9.31
2023-04-15T03:15:21.452Z,9.27
2023-04-15T03:17:52.356Z,9.22
2023-04-15T03:20:21.209Z,9.15
2023-04-15T03:22:49.863Z,9.08
2023-04-15T03:25:20.594Z,9.02
2023-04-15T03:27:49.091Z,8.95
2023-04-15T03:30:21.684Z,8.88
2023-04-15T03:32:50.061Z,8.81
2023-04-15T03:35:18.616Z,8.76
2023-04-15T03:37:47.197Z,8.70
2023-04-15T03:40:15.884Z,8.65
2023-04-15T03:42:43.956Z,8.61
2023-04-15T03:45:12.235Z,8.58
2023-04-15T03:47:40.880Z,8.58
2023-04-15T03:50:09.540Z,8.59
2023-04-15T03:52:38.322Z,8.62
2023-04-15T03:55:07.056Z,8.64
2023-04-15T03:57:39.419Z,8.63
2023-04-15T04:00:10.624Z,8.64
2023-04-15T04:02:42.087Z,8.64
2023-04-15T04:05:10.936Z,8.63
2023-04-15T04:07:39.211Z,8.63
2023-04-15T04:10:07.999Z,8.64
2023-04-15T04:12:36.210Z,8.66
2023-04-15T04:15:05.784Z,8.67
2023-04-15T04:17:34.395Z,8.69
2023-04-15T04:20:02.761Z,8.77
2023-04-15T04:22:31.227Z,8.90
2023-04-15T04:25:00.329Z,9.06
2023-04-15T04:27:28.468Z,9.26
2023-04-15T04:29:56.778Z,9.53
2023-04-15T04:32:25.024Z,9.79
2023-04-15T04:34:53.436Z,10.01
2023-04-15T04:37:21.579Z,10.15
2023-04-15T04:39:49.676Z,10.27
2023-04-15T04:42:17.760Z,10.39
2023-04-15T04:44:46.739Z,10.52
2023-04-15T04:47:15.229Z,10.73
2023-04-15T04:49:43.504Z,11.01
2023-04-15T04:52:11.877Z,11.17
2023-04-15T04:54:41.284Z,11.27
2023-04-15T04:57:09.659Z,11.33
2023-04-15T04:59:38.272Z,11.40
2023-04-15T05:02:07.409Z,11.45
2023-04-15T05:04:37.112Z,11.49
2023-04-15T05:07:05.429Z,11.53
2023-04-15T05:09:36.369Z,11.58
2023-04-15T05:12:05.576Z,11.58
2023-04-15T05:14:33.947Z,11.58
2023-04-15T05:17:02.133Z,11.70
2023-04-15T05:19:30.506Z,11.95
2023-04-15T05:21:58.984Z,12.12
2023-04-15T05:24:27.479Z,12.41
2023-04-15T05:26:56.977Z,12.97
2023-04-15T05:29:25.356Z,13.27
2023-04-15T05:31:53.740Z,13.37
2023-04-15T05:34:22.616Z,13.45
2023-04-15T05:36:50.795Z,13.44
2023-04-15T05:39:19.183Z,13.44
2023-04-15T05:41:47.345Z,13.52
2023-04-15T05:44:15.622Z,13.61
2023-04-15T05:46:44.168Z,13.70
2023-04-15T05:49:12.897Z,13.82
2023-04-15T05:51:41.582Z,14.02
2023-04-15T05:54:09.851Z,14.43
2023-04-15T05:56:38.342Z,14.82
2023-04-15T05:59:07.039Z,15.15
2023-04-15T06:01:35.826Z,15.46
2023-04-15T06:04:04.088Z,15.62
2023-04-15T06:06:32.774Z,15.66
2023-04-15T06:09:01.385Z,15.61
2023-04-15T06:11:30.253Z,15.54
2023-04-15T06:13:58.530Z,15.41
2023-04-15T06:16:27.551Z,15.32
2023-04-15T06:18:56.060Z,15.29
2023-04-15T06:21:24.608Z,15.34
2023-04-15T06:23:53.484Z,15.38
2023-04-15T06:26:21.858Z,15.42
2023-04-15T06:28:50.749Z,15.49
2023-04-15T06:31:19.059Z,15.62
2023-04-15T06:33:47.404Z,15.85
2023-04-15T06:36:15.585Z,16.28
2023-04-15T06:38:43.762Z,16.82
2023-04-15T06:41:12.040Z,17.32
2023-04-15T06:43:40.510Z,17.67
2023-04-15T06:46:08.989Z,18.41
2023-04-15T06:48:37.470Z,19.10
2023-04-15T06:51:06.361Z,19.29
2023-04-15T06:53:35.767Z,19.20
2023-04-15T06:56:04.144Z,19.30
2023-04-15T06:58:32.524Z,19.32
2023-04-15T07:01:00.792Z,19.32
2023-04-15T07:03:30.294Z,19.28
2023-04-15T07:06:01.867Z,19.21
2023-04-15T07:08:30.755Z,19.17
2023-04-15T07:10:59.641Z,19.15
2023-04-15T07:13:28.121Z,19.29
2023-04-15T07:15:57.011Z,19.40
2023-04-15T07:18:25.392Z,19.54
2023-04-15T07:20:53.671Z,19.60
2023-04-15T07:23:22.664Z,19.61
2023-04-15T07:25:52.379Z,19.89
2023-04-15T07:28:20.856Z,20.33
2023-04-15T07:30:49.302Z,20.63
2023-04-15T07:33:18.024Z,21.25
2023-04-15T07:35:47.025Z,21.78
2023-04-15T07:38:15.705Z,22.22
2023-04-15T07:40:44.188Z,22.61
2023-04-15T07:43:13.695Z,22.99
2023-04-15T07:45:42.277Z,23.32
2023-04-15T07:48:11.180Z,23.65
2023-04-15T07:50:39.762Z,24.08
2023-04-15T07:53:08.033Z,24.41
2023-04-15T07:55:36.520Z,24.85
2023-04-15T07:58:05.112Z,25.08
2023-04-15T08:00:33.476Z,25.40
2023-04-15T08:03:02.420Z,25.57
2023-04-15T08:05:30.951Z,25.55
2023-04-15T08:07:59.133Z,25.62
2023-04-15T08:10:27.509Z,25.56
2023-04-15T08:12:56.631Z,25.76
2023-04-15T08:15:25.899Z,25.94
2023-04-15T08:17:54.251Z,25.75
2023-04-15T08:20:22.861Z,25.73
2023-04-15T08:22:52.321Z,26.05
2023-04-15T08:25:20.845Z,26.26
2023-04-15T08:27:49.022Z,26.54
2023-04-15T08:30:17.297Z,26.80
2023-04-15T08:32:49.193Z,26.69
2023-04-15T08:35:17.844Z,26.44
2023-04-15T08:37:46.224Z,26.56
2023-04-15T08:40:14.603Z,26.72
2023-04-15T08:42:46.934Z,26.91
2023-04-15T08:45:15.470Z,26.85
2023-04-15T08:47:45.963Z,26.81
2023-04-15T08:50:15.415Z,26.78
2023-04-15T08:52:43.977Z,26.91
2023-04-15T08:55:13.892Z,26.93
2023-04-15T08:57:42.377Z,26.88
2023-04-15T09:00:12.671Z,26.90
2023-04-15T09:02:41.874Z,26.83
2023-04-15T09:05:10.377Z,26.81
2023-04-15T09:07:38.564Z,26.89
2023-04-15T09:10:07.650Z,27.15
2023-04-15T09:12:37.068Z,27.31
2023-04-15T09:15:05.742Z,27.29
2023-04-15T09:17:34.972Z,27.24
2023-04-15T09:20:15.434Z,27.45
2023-04-15T09:22:45.666Z,27.47
2023-04-15T09:25:22.801Z,27.60
2023-04-15T09:27:53.004Z,27.69
2023-04-15T09:30:21.513Z,27.81
2023-04-15T09:32:54.728Z,27.87
2023-04-15T09:35:24.640Z,27.83
2023-04-15T09:37:53.916Z,27.83
2023-04-15T09:40:33.741Z,27.91
2023-04-15T09:43:02.865Z,27.84
2023-04-15T09:45:32.577Z,27.49
2023-04-15T09:48:19.000Z,27.28
2023-04-15T09:50:49.228Z,27.17
2023-04-15T09:53:20.266Z,27.22
2023-04-15T09:55:52.635Z,27.28
2023-04-15T09:58:26.782Z,27.18
2023-04-15T10:00:57.111Z,27.17
2023-04-15T10:03:26.773Z,27.43
2023-04-15T10:05:57.551Z,27.65
2023-04-15T10:08:30.607Z,27.84
2023-04-15T10:10:59.486Z,27.99
2023-04-15T10:13:32.988Z,27.96
2023-04-15T10:16:11.429Z,27.85
2023-04-15T10:18:43.279Z,27.77
2023-04-15T10:21:14.083Z,27.94
2023-04-15T10:23:43.184Z,28.11
2023-04-15T10:26:12.997Z,28.05
2023-04-15T10:28:42.302Z,27.95
2023-04-15T10:31:15.215Z,28.03
2023-04-15T10:33:44.786Z,28.25
2023-04-15T10:36:14.131Z,28.33
2023-04-15T10:38:45.466Z,28.27
2023-04-15T10:41:18.044Z,28.22
2023-04-15T10:44:02.986Z,28.23
2023-04-15T10:46:41.565Z,28.01
2023-04-15T10:49:15.064Z,27.80
2023-04-15T10:51:46.716Z,27.59
2023-04-15T10:54:18.819Z,27.45
2023-04-15T10:56:52.177Z,27.36
2023-04-15T10:59:22.404Z,27.40
2023-04-15T11:02:02.498Z,27.43
2023-04-15T11:04:54.111Z,27.20
2023-04-15T11:07:48.699Z,27.20
2023-04-15T11:10:26.520Z,27.53
2023-04-15T11:12:58.497Z,27.71
2023-04-15T11:15:32.622Z,27.77
2023-04-15T11:18:10.128Z,27.82
2023-04-15T11:20:40.195Z,27.87
2023-04-15T11:23:15.061Z,27.89
2023-04-15T11:25:44.847Z,27.92
2023-04-15T11:28:13.832Z,27.95
2023-04-15T11:30:43.779Z,28.08
2023-04-15T11:33:12.848Z,27.95
2023-04-15T11:35:42.199Z,27.66
2023-04-15T11:38:15.644Z,27.46
2023-04-15T11:40:46.998Z,27.26
2023-04-15T11:43:21.825Z,27.22
2023-04-15T11:46:01.197Z,27.27
2023-04-15T11:48:32.224Z,27.46
2023-04-15T11:51:05.535Z,27.48
2023-04-15T11:53:51.298Z,27.40
2023-04-15T11:56:21.584Z,27.42
2023-04-15T11:59:03.203Z,27.53
2023-04-15T12:01:37.007Z,27.52
2023-04-15T12:04:18.052Z,27.51
2023-04-15T12:06:47.179Z,27.58
2023-04-15T12:09:20.612Z,27.69
2023-04-15T12:11:51.741Z,27.79
2023-04-15T12:14:33.523Z,27.78
2023-04-15T12:17:04.993Z,27.67
2023-04-15T12:19:39.290Z,27.32
2023-04-15T12:22:15.940Z,27.12
2023-04-15T12:24:47.198Z,27.19
2023-04-15T12:27:16.688Z,27.17
2023-04-15T12:29:45.090Z,26.97
2023-04-15T12:32:15.311Z,26.61
2023-04-15T12:34:49.928Z,26.19
2023-04-15T12:37:18.842Z,25.69
2023-04-15T12:39:50.681Z,25.22
2023-04-15T12:42:19.164Z,24.88
2023-04-15T12:44:48.162Z,24.73
2023-04-15T12:47:16.885Z,24.80
2023-04-15T12:49:45.960Z,25.05
2023-04-15T12:52:14.117Z,25.09
2023-04-15T12:54:42.395Z,25.05
2023-04-15T12:57:10.792Z,25.01
2023-04-15T12:59:39.068Z,24.94
2023-04-15T13:02:07.405Z,25.02
2023-04-15T13:04:35.878Z,25.10
2023-04-15T13:07:05.270Z,25.12
2023-04-15T13:09:33.593Z,24.86
2023-04-15T13:12:01.871Z,24.50
2023-04-15T13:14:30.638Z,24.30
2023-04-15T13:16:59.557Z,24.21
2023-04-15T13:19:27.842Z,24.24
2023-04-15T13:21:56.313Z,24.27
2023-04-15T13:24:24.789Z,24.32
2023-04-15T13:26:53.678Z,24.44
2023-04-15T13:29:22.480Z,24.46
2023-04-15T13:31:51.059Z,24.43
2023-04-15T13:34:19.530Z,24.31
2023-04-15T13:36:47.911Z,24.17
2023-04-15T13:39:16.089Z,24.00
2023-04-15T13:41:45.186Z,23.83
2023-04-15T13:44:13.785Z,23.75
2023-04-15T13:46:42.868Z,23.76
2023-04-15T13:49:11.366Z,23.76
2023-04-15T13:51:40.748Z,23.79
2023-04-15T13:54:09.241Z,23.85
2023-04-15T13:56:37.504Z,24.02
2023-04-15T13:59:06.912Z,24.26
2023-04-15T14:01:36.016Z,24.34
2023-04-15T14:04:04.634Z,24.10
2023-04-15T14:06:33.271Z,23.85
2023-04-15T14:09:01.548Z,23.58
2023-04-15T14:11:30.339Z,23.32
2023-04-15T14:13:58.617Z,23.11
2023-04-15T14:16:27.453Z,22.92
2023-04-15T14:18:55.996Z,22.70
2023-04-15T14:21:24.267Z,22.51
2023-04-15T14:23:52.845Z,22.32
2023-04-15T14:26:21.433Z,22.08
2023-04-15T14:28:50.954Z,21.83
2023-04-15T14:31:20.091Z,21.68
2023-04-15T14:33:48.516Z,21.56
2023-04-15T14:36:17.099Z,21.48
2023-04-15T14:41:13.757Z,21.29
2023-04-15T14:43:42.031Z,21.15
2023-04-15T14:46:11.482Z,21.01
2023-04-15T14:48:40.063Z,20.88
2023-04-15T14:51:08.297Z,20.82
2023-04-15T14:53:36.780Z,20.80
2023-04-15T14:56:05.333Z,20.81
2023-04-15T14:58:33.649Z,20.84
2023-04-15T15:01:03.186Z,20.86
2023-04-15T15:03:31.983Z,20.86
2023-04-15T15:06:00.720Z,20.85
2023-04-15T15:08:29.111Z,20.85
2023-04-15T15:10:57.276Z,20.85
2023-04-15T15:13:25.750Z,20.85
2023-04-15T15:15:54.268Z,20.84
2023-04-15T15:18:25.715Z,20.82
2023-04-15T15:20:54.172Z,20.79
2023-04-15T15:23:22.551Z,20.77
2023-04-15T15:25:51.150Z,20.77
2023-04-15T15:28:20.422Z,20.75
2023-04-15T15:30:48.817Z,20.70
2023-04-15T15:33:16.990Z,20.63
2023-04-15T15:35:45.274Z,20.56
2023-04-15T15:38:13.645Z,20.48
2023-04-15T15:40:41.723Z,20.41
2023-04-15T15:43:10.512Z,20.32
2023-04-15T15:45:38.797Z,20.24
2023-04-15T15:48:07.827Z,20.16
2023-04-15T15:50:37.569Z,20.06
2023-04-15T15:53:05.769Z,19.93
2023-04-15T15:55:34.241Z,19.82
2023-04-15T15:58:02.422Z,19.73
2023-04-15T16:00:31.133Z,19.64
2023-04-15T16:03:05.720Z,19.54
2023-04-15T16:05:36.214Z,19.45
2023-04-15T16:08:04.634Z,19.37
2023-04-15T16:10:34.039Z,19.26
2023-04-15T16:13:03.186Z,19.17
2023-04-15T16:15:32.298Z,19.07
2023-04-15T16:18:00.973Z,18.99
2023-04-15T16:20:29.821Z,18.90
2023-04-15T16:22:58.850Z,18.81
2023-04-15T16:25:27.282Z,18.72
2023-04-15T16:28:03.429Z,18.63
2023-04-15T16:30:39.094Z,18.54
2023-04-15T16:33:08.317Z,18.45
2023-04-15T16:35:36.470Z,18.36
2023-04-15T16:38:04.748Z,18.26
2023-04-15T16:40:33.332Z,18.16
2023-04-15T16:43:01.504Z,18.07
2023-04-15T16:45:29.890Z,17.97
2023-04-15T16:47:58.211Z,17.86
2023-04-15T16:50:26.673Z,17.74
2023-04-15T16:52:55.148Z,17.62
2023-04-15T16:55:23.629Z,17.49
2023-04-15T16:58:00.594Z,17.35
2023-04-15T17:00:37.082Z,17.20
2023-04-15T17:03:06.395Z,17.06
2023-04-15T17:05:35.255Z,16.91
2023-04-15T17:08:04.871Z,16.77
2023-04-15T17:10:33.229Z,16.63
2023-04-15T17:13:01.503Z,16.49
2023-04-15T17:15:29.833Z,16.35
2023-04-15T17:17:58.200Z,16.21
2023-04-15T17:20:26.740Z,16.06
2023-04-15T17:22:55.226Z,15.91
2023-04-15T17:25:23.714Z,15.75
2023-04-15T17:27:51.972Z,15.58
2023-04-15T17:30:20.054Z,15.43
2023-04-15T17:32:48.860Z,15.28
2023-04-15T17:35:18.571Z,15.14
2023-04-15T17:37:46.836Z,15.02
2023-04-15T17:40:15.117Z,14.91
2023-04-15T17:42:43.595Z,14.79
2023-04-15T17:45:12.077Z,14.68
2023-04-15T17:47:41.047Z,14.58
2023-04-15T17:50:10.265Z,14.48
2023-04-15T17:52:38.560Z,14.37
2023-04-15T17:55:08.156Z,14.27
2023-04-15T17:57:37.070Z,14.18
2023-04-15T18:00:07.136Z,14.07
2023-04-15T18:02:41.798Z,13.97
2023-04-15T18:05:10.683Z,13.88
2023-04-15T18:07:39.071Z,13.82
2023-04-15T18:10:10.404Z,13.75
2023-04-15T18:12:38.805Z,13.67
2023-04-15T18:15:09.748Z,13.60
2023-04-15T18:17:38.125Z,13.53
2023-04-15T18:20:07.486Z,13.45
2023-04-15T18:22:38.624Z,13.36
2023-04-15T18:25:07.444Z,13.29
2023-04-15T18:27:39.663Z,13.22
2023-04-15T18:30:10.197Z,13.15
2023-04-15T18:32:39.665Z,13.09
2023-04-15T18:35:08.647Z,13.03
2023-04-15T18:37:37.329Z,12.97
2023-04-15T18:40:10.214Z,12.92
2023-04-15T18:42:38.696Z,12.86
2023-04-15T18:45:07.578Z,12.82
2023-04-15T18:47:35.945Z,12.78
2023-04-15T18:50:04.661Z,12.73
2023-04-15T18:52:34.148Z,12.67
2023-04-15T18:55:03.567Z,12.61
2023-04-15T18:57:34.806Z,12.56
2023-04-15T19:00:05.165Z,12.53
2023-04-15T19:02:33.547Z,12.49
2023-04-15T19:05:04.362Z,12.45
2023-04-15T19:07:36.149Z,12.42
2023-04-15T19:10:08.406Z,12.39
2023-04-15T19:12:37.166Z,12.36
2023-04-15T19:15:07.497Z,12.33
2023-04-15T19:17:35.800Z,12.31
2023-04-15T19:20:04.249Z,12.28
2023-04-15T19:22:34.059Z,12.26
2023-04-15T19:25:06.526Z,12.25
2023-04-15T19:27:35.221Z,12.23
2023-04-15T19:30:05.403Z,12.21
2023-04-15T19:32:36.231Z,12.20
2023-04-15T19:35:05.643Z,12.18
2023-04-15T19:37:38.421Z,12.17
2023-04-15T19:40:10.223Z,12.16
2023-04-15T19:42:43.394Z,12.16
2023-04-15T19:45:13.693Z,12.16
2023-04-15T19:47:42.088Z,12.16
2023-04-15T19:50:12.237Z,12.15
2023-04-15T19:52:40.822Z,12.14
2023-04-15T19:55:09.219Z,12.14
2023-04-15T19:57:37.374Z,12.12
2023-04-15T20:00:07.101Z,12.11
2023-04-15T20:02:35.768Z,12.10
2023-04-15T20:05:04.668Z,12.08
2023-04-15T20:07:33.258Z,12.07
2023-04-15T20:10:01.747Z,12.06
2023-04-15T20:12:50.151Z,12.02
2023-04-15T20:15:18.633Z,11.99
2023-04-15T20:17:47.047Z,11.95
2023-04-15T20:20:16.498Z,11.94
2023-04-15T20:22:44.717Z,11.92
2023-04-15T20:25:13.506Z,11.90
2023-04-15T20:27:41.804Z,11.86
2023-04-15T20:30:10.649Z,11.82
2023-04-15T20:32:39.012Z,11.78
2023-04-15T20:35:08.160Z,11.74
2023-04-15T20:37:37.432Z,11.70
2023-04-15T20:40:06.682Z,11.67
2023-04-15T20:42:35.031Z,11.62
2023-04-15T20:45:07.328Z,11.58
2023-04-15T20:47:36.180Z,11.52
2023-04-15T20:50:05.590Z,11.48
2023-04-15T20:52:33.764Z,11.45
2023-04-15T20:55:01.963Z,11.41
2023-04-15T20:57:30.631Z,11.37
2023-04-15T20:59:59.009Z,11.34
2023-04-15T21:02:27.646Z,11.30
2023-04-15T21:04:59.453Z,11.27
2023-04-15T21:07:27.527Z,11.24
2023-04-15T21:09:56.320Z,11.21
2023-04-15T21:12:24.792Z,11.17
2023-04-15T21:14:55.223Z,11.14
2023-04-15T21:17:23.420Z,11.11
2023-04-15T21:19:51.672Z,11.09
2023-04-15T21:22:20.197Z,11.08
2023-04-15T21:24:49.071Z,11.07
2023-04-15T21:27:17.626Z,11.07
2023-04-15T21:29:46.006Z,11.07
2023-04-15T21:32:14.572Z,11.09
2023-04-15T21:34:42.864Z,11.10
2023-04-15T21:37:11.882Z,11.10
2023-04-15T21:39:39.932Z,11.10
2023-04-15T21:42:08.381Z,11.11
2023-04-15T21:44:36.589Z,11.12
2023-04-15T21:47:05.207Z,11.12
2023-04-15T21:49:33.655Z,11.12
2023-04-15T21:52:02.134Z,11.12
2023-04-15T21:54:31.270Z,11.11
2023-04-15T21:56:59.917Z,11.10
2023-04-15T21:59:28.626Z,11.10
2023-04-15T22:01:57.128Z,11.11
2023-04-15T22:04:25.799Z,11.10
2023-04-15T22:06:55.995Z,11.10
2023-04-15T22:09:24.379Z,11.10
2023-04-15T22:11:54.899Z,11.09
2023-04-15T22:14:23.206Z,11.08
2023-04-15T22:16:51.618Z,11.07
2023-04-15T22:19:20.791Z,11.07
2023-04-15T22:21:51.282Z,11.07
2023-04-15T22:24:32.255Z,11.07
2023-04-15T22:27:08.136Z,11.07
2023-04-15T22:29:36.597Z,11.07
2023-04-15T22:32:05.693Z,11.07
2023-04-15T22:34:34.905Z,11.07
2023-04-15T22:37:03.262Z,11.06
2023-04-15T22:39:31.750Z,11.06
2023-04-15T22:42:00.033Z,11.06
2023-04-15T22:44:28.633Z,11.04
2023-04-15T22:46:57.505Z,11.01
2023-04-15T22:49:26.698Z,11.00
2023-04-15T22:51:54.774Z,10.97
2023-04-15T22:54:23.254Z,10.96
2023-04-15T22:56:52.037Z,10.95
2023-04-15T22:59:20.566Z,10.94
2023-04-15T23:01:49.041Z,10.94
2023-04-15T23:04:25.847Z,10.93
2023-04-15T23:06:56.893Z,10.93
2023-04-15T23:09:25.208Z,10.92
2023-04-15T23:11:54.091Z,10.92
2023-04-15T23:14:22.800Z,10.93
2023-04-15T23:16:51.261Z,10.93
2023-04-15T23:19:20.865Z,10.93
2023-04-15T23:21:49.320Z,10.93
2023-04-15T23:24:17.801Z,10.93
2023-04-15T23:26:46.737Z,10.93
2023-04-15T23:29:15.203Z,10.93
2023-04-15T23:31:44.204Z,10.92
2023-04-15T23:34:12.684Z,10.91
2023-04-15T23:36:41.260Z,10.90
2023-04-15T23:39:09.886Z,10.88
2023-04-15T23:41:38.528Z,10.85
2023-04-15T23:44:07.829Z,10.82
2023-04-15T23:46:36.470Z,10.79
2023-04-15T23:49:04.794Z,10.76
2023-04-15T23:51:35.424Z,10.73
2023-04-15T23:54:03.906Z,10.69
2023-04-15T23:56:32.392Z,10.65
2023-04-15T23:59:00.787Z,10.61
